Breckenridge, CO

7:40 PM MDT on August 22, 2014 (GMT -0600)
Copper Mountain | Change Station
CLOSE
Current Station
Airport
Location: Copper Mountain,
Elevation: 12073 ft
Nearby Weather Stations

Elev 12073 ft 39.48 °N, 106.15 °W | Updated 4 minutes ago

Clear
Clear
46 °F
Feels Like 42 °F
N
8
Wind Variable Wind from SSW

Today
High -- | Low -- °F
--% Chance of Precip.
Yesterday
High -- | Low -- °F
Precip. -- in
6:23 AM 7:50 PM
Waning Crescent, 6% visible
Pressure 30.43 in
Visibility 10.0 miles
Clouds Clear
Windchill 42 °F
Dew Point 37 °F
Humidity 71%
Rainfall 0.02 in
Snow Depth 178 in , 0 in , 0 in
UV 0 out of 12
Pollen 9.60 out of 12
Air Quality Not available.
Flu Activity Not available.
METAR KCCU 230136Z AUTO 21007KT 10SM CLR 08/03 A3043 RMK AO2 LTG DSNT W

More Conditions Fewer Conditions

Pressure 30.43 in
Visibility 10.0 miles
Clouds Clear
Windchill 42 °F
Dew Point 37 °F
Humidity 71%
Rainfall 0.02 in
Snow Depth 178 in , 0 in , 0 in
UV 0 out of 12
Pollen 9.60 out of 12
Air Quality Not available.
Flu Activity Not available.
METAR KCCU 230136Z AUTO 21007KT 10SM CLR 08/03 A3043 RMK AO2 LTG DSNT W

More Conditions Fewer Conditions

Nowcast | as of 5:34 PM MDT on August 22, 2014

Scattered showers and isolated thunderstorms will continue across the mountains and High Mountain valleys through 8 PM. Brief moderate rain will be possible with the stronger storms. Dangerous cloud to ground lightning will also be possible with any of the storms.

×

10-Day Weather Forecast

Almanac

Astronomy

Aug. 22, 2014 Rise Set
Actual Time 6:23 AM MDT 7:50 PM MDT
Civil Twilight 5:55 AM MDT 8:18 PM MDT
Nautical Twilight 5:21 AM MDT 8:52 PM MDT
Astronomical Twilight 4:45 AM MDT 9:27 PM MDT
Moon 3:49 AM MDT (8/22) 6:00 PM MDT (8/22)
Length of Visible Light 14h 23m
Length of Day
13h 26m
Tomorrow will be 2m 23s shorter.
Waning Crescent, 6% of the Moon is Illuminated
Today
Waning Crescent
Aug 25
New
Sep 2
First Quarter
Sep 8
Full
Sep 15
Last Quarter

Today's Extremes

State Highs State Lows

Community

WunderPhotos

Upload Photos

1,746,337 photos uploaded!

WunderBlogs® & News

Nearby

Snow Depth

Station Depth Elevation
Fremont Pass 178 in 11400 ft
Hoosier Pass 0 in 11400 ft
Buckskin Joe 0 in 11150 ft
Michigan Creek 0 in 10600 ft
Summit Ranch 0 in 9400 ft

Earthquake Activity

City Distance Mag. Time & Date
No recent earthquake activity has been reported nearby.
Minimum magnitude displayed is 2.5.

Coastal Water Temperatures

Place Temperature
No Stations Reporting

Nearby Weather Stations